Results: 2018 Fyn ITU Duathlon World Championships | 30-34 Male AG Sprint
Fyn, Denmark • 08 Jul, 2018
Pos First Name Last Name YOB Country Start
Num
Time Run T1 Bike T2 Run
1 Ramos Herrera Zavaleta 1984 MEX 2084 00:57:59 00:16:40 00:01:17 00:30:39 00:01:39 00:07:44
2 Daniel Jenkin 1986 GBR 2072 00:58:29 00:16:41 00:01:20 00:30:25 00:01:49 00:08:14
3 Lee Thompson 1987 GBR 2077 00:59:10 00:17:47 00:01:18 00:30:07 00:01:45 00:08:13
4 Philip Williams 1984 GBR 2078 00:59:22 00:17:30 00:01:22 00:30:25 00:01:55 00:08:10
5 Philipp-Johannes Müller 1986 GER 2080 00:59:36 00:18:04 00:01:13 00:29:57 00:01:58 00:08:24
6 Steven Kendall 1984 GBR 2073 01:00:38 00:17:53 00:01:21 00:29:57 00:02:00 00:09:27
7 Alexis Dieulot 1987 FRA 2067 01:00:39 00:18:22 00:01:26 00:30:34 00:01:59 00:08:18
8 Quentin Bouvy 1988 BEL 2089 01:00:43 00:18:03 00:01:34 00:30:49 00:01:53 00:08:24
9 Thomas Greeves 1986 GBR 2070 01:01:15 00:18:08 00:01:27 00:30:53 00:01:59 00:08:48
10 Tiago Minho 1984 BRA 2091 01:01:28 00:18:14 00:01:24 00:30:47 00:01:58 00:09:05
11 Thiago De Souza Caldas 1987 BRA 2090 01:02:05 00:18:35 00:01:23 00:31:33 00:01:59 00:08:35
12 Chris Bessemans 1985 BEL 2088 01:02:35 00:18:39 00:01:39 00:31:19 00:02:10 00:08:48
13 Mark Mills 1985 GBR 2075 01:02:51 00:18:33 00:02:01 00:30:57 00:02:07 00:09:13
14 Oliver Meek 1984 GBR 2074 01:02:53 00:18:58 00:01:34 00:31:19 00:02:14 00:08:48
15 Pedro Umbelino 1985 BRA 2092 01:03:34 00:19:20 00:01:30 00:31:05 00:02:12 00:09:27
16 Steve Denniss 1987 GBR 2069 01:03:34 00:19:28 00:01:29 00:30:53 00:02:15 00:09:29
17 Paulo Henrique Vieira Martins 1984 BRA 2093 01:04:26 00:19:32 00:01:34 00:31:49 00:02:09 00:09:22
18 Daniel Scott 1985 GBR 2076 01:04:43 00:20:11 00:01:44 00:31:38 00:02:13 00:08:57
19 Sean Conner 1984 CAN 2094 01:04:53 00:19:57 00:01:35 00:31:28 00:02:19 00:09:34
20 John Cook 1986 GBR 2068 01:05:06 00:19:52 00:01:31 00:32:10 00:02:07 00:09:26
21 Graham Maxwell 1986 USA 2087 01:05:17 00:19:58 00:01:31 00:31:57 00:02:27 00:09:24
22 Michael Hemsworth 1984 GBR 2071 01:05:55 00:20:22 00:01:32 00:32:11 00:02:25 00:09:25
23 Danny Blase 1988 GER 2079 01:06:03 00:21:11 00:01:56 00:30:46 00:02:32 00:09:38
24 Chiaki Shimojima 1984 JPN 2082 01:08:54 00:18:48 00:01:43 00:37:19 00:02:26 00:08:38
25 Darcy Hinds 1985 CAN 2095 01:10:02 00:22:07 00:01:49 00:32:35 00:02:43 00:10:48
26 Jose Alejandro Ojeda Diaz 1985 MEX 2085 01:12:03 00:19:23 00:01:31 00:32:27 00:02:00 00:16:42
27 Takahiro Mishina 1984 JPN 2081 01:13:10 00:22:07 00:02:14 00:35:29 00:03:00 00:10:20
Program notes:

Technical Delegate: Duncan Hough/GBR. Head Referee: Ulf Schuetze/CAN.
Competition Jury: Duncan Hough/GBR, Brian Hinton/AUS, Morten Fenger/DEN.
Distances: Run 5.5km (3 laps), Bike 19.9km (1 lap), Run 2.5km (1 lap)
Air temperature: 16.6C; Humidity: 52.7%